sensor_id;sensor_type;location;lat;lon;timestamp;P1;durP1;ratioP1;P2;durP2;ratioP2
79790;SDS011;69278;52.220;5.172;2023-12-22T00:02:17;6.25;;;1.00;;
79790;SDS011;69278;52.220;5.172;2023-12-22T00:04:44;2.75;;;1.05;;
79790;SDS011;69278;52.220;5.172;2023-12-22T00:07:10;4.70;;;1.10;;
79790;SDS011;69278;52.220;5.172;2023-12-22T00:09:37;2.22;;;0.60;;
79790;SDS011;69278;52.220;5.172;2023-12-22T00:12:03;5.63;;;0.80;;
79790;SDS011;69278;52.220;5.172;2023-12-22T00:14:30;2.58;;;0.80;;
79790;SDS011;69278;52.220;5.172;2023-12-22T00:16:57;3.50;;;0.70;;
79790;SDS011;69278;52.220;5.172;2023-12-22T00:19:23;2.45;;;0.70;;
79790;SDS011;69278;52.220;5.172;2023-12-22T00:21:50;3.88;;;1.13;;
79790;SDS011;69278;52.220;5.172;2023-12-22T00:24:16;2.10;;;0.80;;
79790;SDS011;69278;52.220;5.172;2023-12-22T00:26:45;3.35;;;1.00;;
79790;SDS011;69278;52.220;5.172;2023-12-22T00:29:12;3.65;;;0.85;;
79790;SDS011;69278;52.220;5.172;2023-12-22T00:31:38;4.00;;;0.98;;
79790;SDS011;69278;52.220;5.172;2023-12-22T00:34:05;3.80;;;1.00;;
79790;SDS011;69278;52.220;5.172;2023-12-22T00:36:31;3.37;;;0.77;;
79790;SDS011;69278;52.220;5.172;2023-12-22T00:38:58;1.70;;;0.70;;
79790;SDS011;69278;52.220;5.172;2023-12-22T00:41:24;3.17;;;1.02;;
79790;SDS011;69278;52.220;5.172;2023-12-22T00:43:51;3.78;;;0.90;;
79790;SDS011;69278;52.220;5.172;2023-12-22T00:46:17;5.15;;;0.85;;
79790;SDS011;69278;52.220;5.172;2023-12-22T00:48:47;1.97;;;0.90;;
79790;SDS011;69278;52.220;5.172;2023-12-22T00:51:21;4.10;;;1.00;;
79790;SDS011;69278;52.220;5.172;2023-12-22T00:53:47;2.80;;;1.00;;
79790;SDS011;69278;52.220;5.172;2023-12-22T00:56:15;4.70;;;1.13;;
79790;SDS011;69278;52.220;5.172;2023-12-22T00:58:41;4.82;;;1.20;;
79790;SDS011;69278;52.220;5.172;2023-12-22T01:01:12;5.63;;;1.07;;
79790;SDS011;69278;52.220;5.172;2023-12-22T01:03:39;5.35;;;1.13;;
79790;SDS011;69278;52.220;5.172;2023-12-22T01:06:05;7.82;;;1.25;;
79790;SDS011;69278;52.220;5.172;2023-12-22T01:08:32;4.75;;;1.13;;
79790;SDS011;69278;52.220;5.172;2023-12-22T01:11:02;4.90;;;1.00;;
79790;SDS011;69278;52.220;5.172;2023-12-22T01:13:29;4.50;;;0.97;;
79790;SDS011;69278;52.220;5.172;2023-12-22T01:15:55;5.05;;;1.25;;
79790;SDS011;69278;52.220;5.172;2023-12-22T01:18:22;6.38;;;1.23;;
79790;SDS011;69278;52.220;5.172;2023-12-22T01:20:49;4.03;;;1.00;;
79790;SDS011;69278;52.220;5.172;2023-12-22T01:23:21;9.38;;;1.30;;
79790;SDS011;69278;52.220;5.172;2023-12-22T01:25:47;8.87;;;1.20;;
79790;SDS011;69278;52.220;5.172;2023-12-22T01:28:17;6.68;;;1.27;;
79790;SDS011;69278;52.220;5.172;2023-12-22T01:30:43;9.00;;;1.70;;
79790;SDS011;69278;52.220;5.172;2023-12-22T01:33:10;6.80;;;1.27;;
79790;SDS011;69278;52.220;5.172;2023-12-22T01:35:37;9.10;;;1.60;;
79790;SDS011;69278;52.220;5.172;2023-12-22T01:38:03;4.77;;;1.00;;
79790;SDS011;69278;52.220;5.172;2023-12-22T01:40:29;7.38;;;1.20;;
79790;SDS011;69278;52.220;5.172;2023-12-22T01:42:56;6.10;;;1.10;;
79790;SDS011;69278;52.220;5.172;2023-12-22T01:45:22;7.93;;;1.40;;
79790;SDS011;69278;52.220;5.172;2023-12-22T01:47:52;6.03;;;1.33;;
79790;SDS011;69278;52.220;5.172;2023-12-22T01:50:20;4.80;;;1.20;;
79790;SDS011;69278;52.220;5.172;2023-12-22T01:52:47;11.98;;;1.50;;
79790;SDS011;69278;52.220;5.172;2023-12-22T01:55:14;2.70;;;1.25;;
79790;SDS011;69278;52.220;5.172;2023-12-22T01:57:43;8.25;;;1.10;;
79790;SDS011;69278;52.220;5.172;2023-12-22T02:00:11;5.75;;;1.35;;
79790;SDS011;69278;52.220;5.172;2023-12-22T02:02:38;8.47;;;1.50;;
79790;SDS011;69278;52.220;5.172;2023-12-22T02:05:08;11.77;;;1.60;;
79790;SDS011;69278;52.220;5.172;2023-12-22T02:07:38;7.53;;;1.60;;
79790;SDS011;69278;52.220;5.172;2023-12-22T02:10:10;7.10;;;1.48;;
79790;SDS011;69278;52.220;5.172;2023-12-22T02:12:37;8.27;;;1.63;;
79790;SDS011;69278;52.220;5.172;2023-12-22T02:15:04;8.87;;;1.57;;
79790;SDS011;69278;52.220;5.172;2023-12-22T02:17:43;10.55;;;1.17;;
79790;SDS011;69278;52.220;5.172;2023-12-22T02:20:14;9.48;;;1.50;;
79790;SDS011;69278;52.220;5.172;2023-12-22T02:22:53;12.88;;;2.05;;
79790;SDS011;69278;52.220;5.172;2023-12-22T02:25:20;12.52;;;1.60;;
79790;SDS011;69278;52.220;5.172;2023-12-22T02:28:12;12.53;;;1.53;;
79790;SDS011;69278;52.220;5.172;2023-12-22T02:33:41;11.20;;;1.80;;
79790;SDS011;69278;52.220;5.172;2023-12-22T02:36:12;15.30;;;2.00;;
79790;SDS011;69278;52.220;5.172;2023-12-22T02:38:41;8.60;;;1.67;;
79790;SDS011;69278;52.220;5.172;2023-12-22T02:43:50;9.10;;;1.67;;
79790;SDS011;69278;52.220;5.172;2023-12-22T02:46:18;10.13;;;1.60;;
79790;SDS011;69278;52.220;5.172;2023-12-22T02:48:44;12.65;;;1.60;;
79790;SDS011;69278;52.220;5.172;2023-12-22T02:51:11;8.32;;;1.52;;
79790;SDS011;69278;52.220;5.172;2023-12-22T02:53:37;12.90;;;2.10;;
79790;SDS011;69278;52.220;5.172;2023-12-22T02:56:04;8.02;;;2.20;;
79790;SDS011;69278;52.220;5.172;2023-12-22T02:58:33;7.97;;;1.63;;
79790;SDS011;69278;52.220;5.172;2023-12-22T03:01:00;9.52;;;1.52;;
79790;SDS011;69278;52.220;5.172;2023-12-22T03:03:26;13.77;;;2.17;;
79790;SDS011;69278;52.220;5.172;2023-12-22T03:05:52;12.87;;;2.40;;
79790;SDS011;69278;52.220;5.172;2023-12-22T03:08:19;14.63;;;1.70;;
79790;SDS011;69278;52.220;5.172;2023-12-22T03:10:46;9.80;;;1.60;;
79790;SDS011;69278;52.220;5.172;2023-12-22T03:13:21;6.78;;;1.55;;
79790;SDS011;69278;52.220;5.172;2023-12-22T03:15:47;8.23;;;1.60;;
79790;SDS011;69278;52.220;5.172;2023-12-22T03:18:14;11.50;;;2.03;;
79790;SDS011;69278;52.220;5.172;2023-12-22T03:20:40;9.65;;;1.58;;
79790;SDS011;69278;52.220;5.172;2023-12-22T03:23:07;10.32;;;2.00;;
79790;SDS011;69278;52.220;5.172;2023-12-22T03:25:33;9.90;;;1.90;;
79790;SDS011;69278;52.220;5.172;2023-12-22T03:28:00;9.15;;;2.20;;
79790;SDS011;69278;52.220;5.172;2023-12-22T03:30:26;7.70;;;1.47;;
79790;SDS011;69278;52.220;5.172;2023-12-22T03:32:53;11.35;;;2.20;;
79790;SDS011;69278;52.220;5.172;2023-12-22T03:35:19;10.05;;;1.60;;
79790;SDS011;69278;52.220;5.172;2023-12-22T03:37:46;16.20;;;1.58;;
79790;SDS011;69278;52.220;5.172;2023-12-22T03:40:13;7.28;;;1.45;;
79790;SDS011;69278;52.220;5.172;2023-12-22T03:42:39;4.87;;;0.90;;
79790;SDS011;69278;52.220;5.172;2023-12-22T03:45:06;0.98;;;0.60;;
79790;SDS011;69278;52.220;5.172;2023-12-22T03:47:33;3.50;;;1.08;;
79790;SDS011;69278;52.220;5.172;2023-12-22T03:49:59;8.20;;;1.25;;
79790;SDS011;69278;52.220;5.172;2023-12-22T03:52:26;4.40;;;1.10;;
79790;SDS011;69278;52.220;5.172;2023-12-22T03:54:52;6.50;;;1.30;;
79790;SDS011;69278;52.220;5.172;2023-12-22T03:57:19;6.20;;;0.90;;
79790;SDS011;69278;52.220;5.172;2023-12-22T03:59:45;4.93;;;1.00;;
79790;SDS011;69278;52.220;5.172;2023-12-22T04:02:11;4.15;;;1.00;;
79790;SDS011;69278;52.220;5.172;2023-12-22T04:04:38;5.97;;;1.17;;
79790;SDS011;69278;52.220;5.172;2023-12-22T04:07:05;8.37;;;1.13;;
79790;SDS011;69278;52.220;5.172;2023-12-22T04:09:32;4.05;;;1.10;;
79790;SDS011;69278;52.220;5.172;2023-12-22T04:11:59;9.07;;;1.50;;
79790;SDS011;69278;52.220;5.172;2023-12-22T04:14:25;5.43;;;1.35;;
79790;SDS011;69278;52.220;5.172;2023-12-22T04:16:51;8.40;;;1.13;;
79790;SDS011;69278;52.220;5.172;2023-12-22T04:19:20;6.60;;;1.50;;
79790;SDS011;69278;52.220;5.172;2023-12-22T04:21:49;13.48;;;1.50;;
79790;SDS011;69278;52.220;5.172;2023-12-22T04:24:16;13.98;;;2.53;;
79790;SDS011;69278;52.220;5.172;2023-12-22T04:26:42;10.18;;;1.55;;
79790;SDS011;69278;52.220;5.172;2023-12-22T04:29:09;10.23;;;1.33;;
79790;SDS011;69278;52.220;5.172;2023-12-22T04:31:35;11.90;;;1.67;;
79790;SDS011;69278;52.220;5.172;2023-12-22T04:34:02;12.77;;;1.70;;
79790;SDS011;69278;52.220;5.172;2023-12-22T04:36:28;10.77;;;1.85;;
79790;SDS011;69278;52.220;5.172;2023-12-22T04:38:55;14.85;;;1.90;;
79790;SDS011;69278;52.220;5.172;2023-12-22T04:41:22;12.13;;;1.90;;
79790;SDS011;69278;52.220;5.172;2023-12-22T04:43:48;9.30;;;1.70;;
79790;SDS011;69278;52.220;5.172;2023-12-22T04:46:15;9.38;;;2.00;;
79790;SDS011;69278;52.220;5.172;2023-12-22T04:48:41;6.68;;;1.30;;
79790;SDS011;69278;52.220;5.172;2023-12-22T04:51:08;14.07;;;1.92;;
79790;SDS011;69278;52.220;5.172;2023-12-22T04:53:34;11.25;;;2.17;;
79790;SDS011;69278;52.220;5.172;2023-12-22T04:56:01;13.07;;;1.93;;
79790;SDS011;69278;52.220;5.172;2023-12-22T04:58:28;7.47;;;1.60;;
79790;SDS011;69278;52.220;5.172;2023-12-22T05:00:54;7.35;;;1.95;;
79790;SDS011;69278;52.220;5.172;2023-12-22T05:03:24;14.23;;;1.98;;
79790;SDS011;69278;52.220;5.172;2023-12-22T05:05:53;13.93;;;2.17;;
79790;SDS011;69278;52.220;5.172;2023-12-22T05:08:19;7.87;;;1.40;;
79790;SDS011;69278;52.220;5.172;2023-12-22T05:10:46;12.90;;;1.85;;
79790;SDS011;69278;52.220;5.172;2023-12-22T05:13:12;12.40;;;1.70;;
79790;SDS011;69278;52.220;5.172;2023-12-22T05:15:39;9.45;;;1.58;;
79790;SDS011;69278;52.220;5.172;2023-12-22T05:18:05;11.07;;;1.60;;
79790;SDS011;69278;52.220;5.172;2023-12-22T05:20:32;7.57;;;1.70;;
79790;SDS011;69278;52.220;5.172;2023-12-22T05:22:59;9.88;;;1.83;;
79790;SDS011;69278;52.220;5.172;2023-12-22T05:25:26;8.05;;;1.23;;
79790;SDS011;69278;52.220;5.172;2023-12-22T05:27:52;12.32;;;1.60;;
79790;SDS011;69278;52.220;5.172;2023-12-22T05:30:19;10.95;;;1.70;;
79790;SDS011;69278;52.220;5.172;2023-12-22T05:32:45;5.23;;;1.20;;
79790;SDS011;69278;52.220;5.172;2023-12-22T05:35:12;10.10;;;1.92;;
79790;SDS011;69278;52.220;5.172;2023-12-22T05:37:39;4.25;;;1.15;;
79790;SDS011;69278;52.220;5.172;2023-12-22T05:40:05;7.95;;;1.42;;
79790;SDS011;69278;52.220;5.172;2023-12-22T05:42:33;6.80;;;1.58;;
79790;SDS011;69278;52.220;5.172;2023-12-22T05:44:59;7.37;;;1.30;;
79790;SDS011;69278;52.220;5.172;2023-12-22T05:47:26;5.05;;;1.40;;
79790;SDS011;69278;52.220;5.172;2023-12-22T05:49:55;9.07;;;1.70;;
79790;SDS011;69278;52.220;5.172;2023-12-22T05:52:22;3.35;;;1.13;;
79790;SDS011;69278;52.220;5.172;2023-12-22T05:54:48;9.35;;;1.40;;
79790;SDS011;69278;52.220;5.172;2023-12-22T05:57:15;11.47;;;1.57;;
79790;SDS011;69278;52.220;5.172;2023-12-22T05:59:41;7.53;;;1.30;;
79790;SDS011;69278;52.220;5.172;2023-12-22T06:02:08;14.73;;;1.83;;
79790;SDS011;69278;52.220;5.172;2023-12-22T06:04:34;10.02;;;1.42;;
79790;SDS011;69278;52.220;5.172;2023-12-22T06:07:01;11.23;;;1.88;;
79790;SDS011;69278;52.220;5.172;2023-12-22T06:09:30;4.33;;;1.20;;
79790;SDS011;69278;52.220;5.172;2023-12-22T06:11:57;11.50;;;1.83;;
79790;SDS011;69278;52.220;5.172;2023-12-22T06:14:29;9.35;;;1.40;;
79790;SDS011;69278;52.220;5.172;2023-12-22T06:16:56;7.60;;;1.45;;
79790;SDS011;69278;52.220;5.172;2023-12-22T06:19:24;13.50;;;1.58;;
79790;SDS011;69278;52.220;5.172;2023-12-22T06:21:54;8.47;;;1.50;;
79790;SDS011;69278;52.220;5.172;2023-12-22T06:24:21;10.93;;;1.67;;
79790;SDS011;69278;52.220;5.172;2023-12-22T06:26:47;6.68;;;1.77;;
79790;SDS011;69278;52.220;5.172;2023-12-22T06:29:14;12.23;;;1.80;;
79790;SDS011;69278;52.220;5.172;2023-12-22T06:31:40;10.88;;;1.60;;
79790;SDS011;69278;52.220;5.172;2023-12-22T06:34:07;8.87;;;1.73;;
79790;SDS011;69278;52.220;5.172;2023-12-22T06:36:34;11.77;;;1.92;;
79790;SDS011;69278;52.220;5.172;2023-12-22T06:39:00;14.65;;;2.13;;
79790;SDS011;69278;52.220;5.172;2023-12-22T06:41:27;10.82;;;1.58;;
79790;SDS011;69278;52.220;5.172;2023-12-22T06:43:56;12.13;;;1.92;;
79790;SDS011;69278;52.220;5.172;2023-12-22T06:46:25;12.03;;;1.97;;
79790;SDS011;69278;52.220;5.172;2023-12-22T06:48:53;15.20;;;1.65;;
79790;SDS011;69278;52.220;5.172;2023-12-22T06:53:52;8.50;;;1.77;;
79790;SDS011;69278;52.220;5.172;2023-12-22T06:56:21;15.50;;;2.33;;
79790;SDS011;69278;52.220;5.172;2023-12-22T06:58:49;7.57;;;1.40;;
79790;SDS011;69278;52.220;5.172;2023-12-22T07:01:19;8.00;;;1.70;;
79790;SDS011;69278;52.220;5.172;2023-12-22T07:03:47;8.88;;;1.63;;
79790;SDS011;69278;52.220;5.172;2023-12-22T07:06:15;15.07;;;1.88;;
79790;SDS011;69278;52.220;5.172;2023-12-22T07:11:40;9.57;;;1.70;;
79790;SDS011;69278;52.220;5.172;2023-12-22T07:14:08;11.82;;;1.92;;
79790;SDS011;69278;52.220;5.172;2023-12-22T07:16:37;8.65;;;1.65;;
79790;SDS011;69278;52.220;5.172;2023-12-22T07:19:04;16.73;;;2.30;;
79790;SDS011;69278;52.220;5.172;2023-12-22T07:21:31;15.00;;;2.00;;
79790;SDS011;69278;52.220;5.172;2023-12-22T07:23:58;14.30;;;2.20;;
79790;SDS011;69278;52.220;5.172;2023-12-22T07:26:26;11.52;;;1.77;;
79790;SDS011;69278;52.220;5.172;2023-12-22T07:28:58;9.73;;;2.30;;
79790;SDS011;69278;52.220;5.172;2023-12-22T07:31:25;12.52;;;2.13;;
79790;SDS011;69278;52.220;5.172;2023-12-22T07:33:53;15.48;;;2.13;;
79790;SDS011;69278;52.220;5.172;2023-12-22T07:36:20;9.93;;;1.60;;
79790;SDS011;69278;52.220;5.172;2023-12-22T07:38:48;10.10;;;1.50;;
79790;SDS011;69278;52.220;5.172;2023-12-22T07:41:15;11.50;;;1.67;;
79790;SDS011;69278;52.220;5.172;2023-12-22T07:43:44;9.05;;;1.60;;
79790;SDS011;69278;52.220;5.172;2023-12-22T07:46:16;16.08;;;2.28;;
79790;SDS011;69278;52.220;5.172;2023-12-22T07:48:43;11.90;;;1.70;;
79790;SDS011;69278;52.220;5.172;2023-12-22T07:51:11;13.07;;;1.85;;
79790;SDS011;69278;52.220;5.172;2023-12-22T07:53:38;7.68;;;1.80;;
79790;SDS011;69278;52.220;5.172;2023-12-22T07:56:05;13.00;;;1.90;;
79790;SDS011;69278;52.220;5.172;2023-12-22T07:58:34;22.08;;;2.80;;
79790;SDS011;69278;52.220;5.172;2023-12-22T08:01:01;12.20;;;2.13;;
79790;SDS011;69278;52.220;5.172;2023-12-22T08:03:27;18.55;;;2.78;;
79790;SDS011;69278;52.220;5.172;2023-12-22T08:05:54;13.27;;;2.60;;
79790;SDS011;69278;52.220;5.172;2023-12-22T08:08:22;14.60;;;2.17;;
79790;SDS011;69278;52.220;5.172;2023-12-22T08:10:49;10.73;;;2.28;;
79790;SDS011;69278;52.220;5.172;2023-12-22T08:13:15;12.30;;;2.50;;
79790;SDS011;69278;52.220;5.172;2023-12-22T08:15:44;16.83;;;3.08;;
79790;SDS011;69278;52.220;5.172;2023-12-22T08:18:10;13.13;;;2.33;;
79790;SDS011;69278;52.220;5.172;2023-12-22T08:20:37;8.63;;;1.88;;
79790;SDS011;69278;52.220;5.172;2023-12-22T08:23:09;12.02;;;2.15;;
79790;SDS011;69278;52.220;5.172;2023-12-22T08:25:38;16.30;;;2.20;;
79790;SDS011;69278;52.220;5.172;2023-12-22T08:28:08;15.18;;;2.05;;
79790;SDS011;69278;52.220;5.172;2023-12-22T08:30:34;8.50;;;1.77;;
79790;SDS011;69278;52.220;5.172;2023-12-22T08:33:01;12.13;;;2.13;;
79790;SDS011;69278;52.220;5.172;2023-12-22T08:35:28;8.65;;;1.85;;
79790;SDS011;69278;52.220;5.172;2023-12-22T08:37:54;9.93;;;2.10;;
79790;SDS011;69278;52.220;5.172;2023-12-22T08:40:21;7.82;;;1.85;;
79790;SDS011;69278;52.220;5.172;2023-12-22T08:42:54;6.40;;;1.65;;
79790;SDS011;69278;52.220;5.172;2023-12-22T08:45:21;16.73;;;2.88;;
79790;SDS011;69278;52.220;5.172;2023-12-22T08:47:47;9.55;;;2.00;;
79790;SDS011;69278;52.220;5.172;2023-12-22T08:50:15;10.90;;;1.90;;
79790;SDS011;69278;52.220;5.172;2023-12-22T08:52:41;11.73;;;1.98;;
79790;SDS011;69278;52.220;5.172;2023-12-22T08:55:08;14.52;;;2.35;;
79790;SDS011;69278;52.220;5.172;2023-12-22T08:57:34;9.05;;;1.70;;
79790;SDS011;69278;52.220;5.172;2023-12-22T09:00:03;13.15;;;2.00;;
79790;SDS011;69278;52.220;5.172;2023-12-22T09:02:33;11.93;;;1.87;;
79790;SDS011;69278;52.220;5.172;2023-12-22T09:05:03;10.90;;;1.95;;
79790;SDS011;69278;52.220;5.172;2023-12-22T09:07:29;8.15;;;2.05;;
79790;SDS011;69278;52.220;5.172;2023-12-22T09:09:56;5.97;;;1.70;;
79790;SDS011;69278;52.220;5.172;2023-12-22T09:12:22;6.57;;;1.42;;
79790;SDS011;69278;52.220;5.172;2023-12-22T09:14:49;3.93;;;0.80;;
79790;SDS011;69278;52.220;5.172;2023-12-22T09:17:16;2.33;;;0.82;;
79790;SDS011;69278;52.220;5.172;2023-12-22T09:19:42;2.78;;;0.80;;
79790;SDS011;69278;52.220;5.172;2023-12-22T09:22:09;2.17;;;0.80;;
79790;SDS011;69278;52.220;5.172;2023-12-22T09:24:35;1.60;;;0.70;;
79790;SDS011;69278;52.220;5.172;2023-12-22T09:27:03;1.87;;;0.70;;
79790;SDS011;69278;52.220;5.172;2023-12-22T09:29:30;2.63;;;0.75;;
79790;SDS011;69278;52.220;5.172;2023-12-22T09:32:01;3.47;;;0.90;;
79790;SDS011;69278;52.220;5.172;2023-12-22T09:34:28;5.93;;;1.10;;
79790;SDS011;69278;52.220;5.172;2023-12-22T09:36:54;9.82;;;1.73;;
79790;SDS011;69278;52.220;5.172;2023-12-22T09:39:21;4.53;;;1.10;;
79790;SDS011;69278;52.220;5.172;2023-12-22T09:41:48;7.70;;;1.65;;
79790;SDS011;69278;52.220;5.172;2023-12-22T09:44:19;7.50;;;1.60;;
79790;SDS011;69278;52.220;5.172;2023-12-22T09:46:49;11.80;;;1.52;;
79790;SDS011;69278;52.220;5.172;2023-12-22T09:49:17;8.60;;;1.60;;
79790;SDS011;69278;52.220;5.172;2023-12-22T09:51:44;10.50;;;1.63;;
79790;SDS011;69278;52.220;5.172;2023-12-22T09:54:11;7.13;;;1.50;;
79790;SDS011;69278;52.220;5.172;2023-12-22T09:56:40;7.80;;;1.60;;
79790;SDS011;69278;52.220;5.172;2023-12-22T09:59:12;10.13;;;1.98;;
79790;SDS011;69278;52.220;5.172;2023-12-22T10:01:40;13.02;;;1.42;;
79790;SDS011;69278;52.220;5.172;2023-12-22T10:04:10;5.43;;;1.80;;
79790;SDS011;69278;52.220;5.172;2023-12-22T10:06:36;5.10;;;1.17;;
79790;SDS011;69278;52.220;5.172;2023-12-22T10:09:04;9.18;;;1.95;;
79790;SDS011;69278;52.220;5.172;2023-12-22T10:11:33;3.17;;;1.10;;
79790;SDS011;69278;52.220;5.172;2023-12-22T10:14:02;6.97;;;1.80;;
79790;SDS011;69278;52.220;5.172;2023-12-22T10:16:29;12.03;;;1.50;;
79790;SDS011;69278;52.220;5.172;2023-12-22T10:18:56;6.90;;;1.40;;
79790;SDS011;69278;52.220;5.172;2023-12-22T10:21:24;5.70;;;1.30;;
79790;SDS011;69278;52.220;5.172;2023-12-22T10:23:51;6.22;;;1.40;;
79790;SDS011;69278;52.220;5.172;2023-12-22T10:26:17;9.00;;;1.67;;
79790;SDS011;69278;52.220;5.172;2023-12-22T10:28:46;8.33;;;1.67;;
79790;SDS011;69278;52.220;5.172;2023-12-22T10:31:13;6.82;;;1.63;;
79790;SDS011;69278;52.220;5.172;2023-12-22T10:33:40;7.47;;;1.70;;
79790;SDS011;69278;52.220;5.172;2023-12-22T10:36:09;6.80;;;1.20;;
79790;SDS011;69278;52.220;5.172;2023-12-22T10:38:36;8.18;;;1.33;;
79790;SDS011;69278;52.220;5.172;2023-12-22T10:41:03;7.00;;;1.43;;
79790;SDS011;69278;52.220;5.172;2023-12-22T10:43:38;4.97;;;1.38;;
79790;SDS011;69278;52.220;5.172;2023-12-22T10:46:06;9.50;;;1.60;;
79790;SDS011;69278;52.220;5.172;2023-12-22T10:48:38;6.32;;;1.40;;
79790;SDS011;69278;52.220;5.172;2023-12-22T10:51:12;7.30;;;1.70;;
79790;SDS011;69278;52.220;5.172;2023-12-22T10:53:41;4.47;;;1.20;;
79790;SDS011;69278;52.220;5.172;2023-12-22T10:56:08;5.43;;;1.27;;
79790;SDS011;69278;52.220;5.172;2023-12-22T10:58:35;4.35;;;1.20;;
79790;SDS011;69278;52.220;5.172;2023-12-22T11:01:02;7.93;;;1.20;;
79790;SDS011;69278;52.220;5.172;2023-12-22T11:03:29;4.60;;;1.25;;
79790;SDS011;69278;52.220;5.172;2023-12-22T11:06:00;9.83;;;1.40;;
79790;SDS011;69278;52.220;5.172;2023-12-22T11:08:31;5.43;;;1.10;;
79790;SDS011;69278;52.220;5.172;2023-12-22T11:11:00;4.25;;;1.00;;
79790;SDS011;69278;52.220;5.172;2023-12-22T11:13:38;7.32;;;1.50;;
79790;SDS011;69278;52.220;5.172;2023-12-22T11:16:05;3.88;;;1.20;;
79790;SDS011;69278;52.220;5.172;2023-12-22T11:18:32;9.07;;;1.00;;
79790;SDS011;69278;52.220;5.172;2023-12-22T11:21:01;8.15;;;1.30;;
79790;SDS011;69278;52.220;5.172;2023-12-22T11:23:32;8.75;;;1.42;;
79790;SDS011;69278;52.220;5.172;2023-12-22T11:26:01;8.27;;;1.33;;
79790;SDS011;69278;52.220;5.172;2023-12-22T11:28:31;4.93;;;1.33;;
79790;SDS011;69278;52.220;5.172;2023-12-22T11:30:59;5.87;;;1.30;;
79790;SDS011;69278;52.220;5.172;2023-12-22T11:33:27;8.75;;;1.67;;
79790;SDS011;69278;52.220;5.172;2023-12-22T11:35:55;5.93;;;1.10;;
79790;SDS011;69278;52.220;5.172;2023-12-22T11:38:22;7.18;;;1.40;;
79790;SDS011;69278;52.220;5.172;2023-12-22T11:40:54;8.80;;;1.80;;
79790;SDS011;69278;52.220;5.172;2023-12-22T11:43:21;3.90;;;1.10;;
79790;SDS011;69278;52.220;5.172;2023-12-22T11:45:50;6.47;;;1.42;;
79790;SDS011;69278;52.220;5.172;2023-12-22T11:48:17;3.47;;;1.17;;
79790;SDS011;69278;52.220;5.172;2023-12-22T11:50:44;4.18;;;1.00;;
79790;SDS011;69278;52.220;5.172;2023-12-22T11:53:53;4.35;;;1.30;;
79790;SDS011;69278;52.220;5.172;2023-12-22T11:56:04;5.80;;;1.60;;
79790;SDS011;69278;52.220;5.172;2023-12-22T11:58:38;4.72;;;0.90;;
79790;SDS011;69278;52.220;5.172;2023-12-22T12:01:18;4.55;;;1.25;;
79790;SDS011;69278;52.220;5.172;2023-12-22T12:03:58;5.63;;;1.30;;
79790;SDS011;69278;52.220;5.172;2023-12-22T12:06:33;5.75;;;1.20;;
79790;SDS011;69278;52.220;5.172;2023-12-22T12:09:06;3.60;;;1.20;;
79790;SDS011;69278;52.220;5.172;2023-12-22T12:14:31;4.57;;;1.13;;
79790;SDS011;69278;52.220;5.172;2023-12-22T12:17:08;8.38;;;1.40;;
79790;SDS011;69278;52.220;5.172;2023-12-22T12:19:39;6.78;;;1.50;;
79790;SDS011;69278;52.220;5.172;2023-12-22T12:22:08;5.47;;;1.20;;
79790;SDS011;69278;52.220;5.172;2023-12-22T12:24:37;6.43;;;1.20;;
79790;SDS011;69278;52.220;5.172;2023-12-22T12:27:04;6.13;;;1.20;;
79790;SDS011;69278;52.220;5.172;2023-12-22T12:29:34;5.57;;;1.25;;
79790;SDS011;69278;52.220;5.172;2023-12-22T12:32:03;5.72;;;1.33;;
79790;SDS011;69278;52.220;5.172;2023-12-22T12:34:32;8.00;;;1.30;;
79790;SDS011;69278;52.220;5.172;2023-12-22T12:36:58;9.07;;;1.67;;
79790;SDS011;69278;52.220;5.172;2023-12-22T12:39:29;7.38;;;1.35;;
79790;SDS011;69278;52.220;5.172;2023-12-22T12:41:59;4.75;;;1.23;;
79790;SDS011;69278;52.220;5.172;2023-12-22T12:44:26;7.80;;;1.25;;
79790;SDS011;69278;52.220;5.172;2023-12-22T12:46:53;8.97;;;1.30;;
79790;SDS011;69278;52.220;5.172;2023-12-22T12:49:20;6.18;;;1.42;;
79790;SDS011;69278;52.220;5.172;2023-12-22T12:51:47;9.77;;;1.20;;
79790;SDS011;69278;52.220;5.172;2023-12-22T12:54:15;6.22;;;1.30;;
79790;SDS011;69278;52.220;5.172;2023-12-22T12:56:45;6.85;;;1.48;;
79790;SDS011;69278;52.220;5.172;2023-12-22T12:59:13;8.20;;;1.07;;
79790;SDS011;69278;52.220;5.172;2023-12-22T13:01:42;10.05;;;1.40;;
79790;SDS011;69278;52.220;5.172;2023-12-22T13:04:11;6.57;;;1.05;;
79790;SDS011;69278;52.220;5.172;2023-12-22T13:06:43;6.13;;;1.20;;
79790;SDS011;69278;52.220;5.172;2023-12-22T13:09:13;8.80;;;1.48;;
79790;SDS011;69278;52.220;5.172;2023-12-22T13:11:40;6.17;;;1.30;;
79790;SDS011;69278;52.220;5.172;2023-12-22T13:14:10;5.78;;;0.98;;
79790;SDS011;69278;52.220;5.172;2023-12-22T13:16:37;11.82;;;1.85;;
79790;SDS011;69278;52.220;5.172;2023-12-22T13:19:06;7.20;;;1.27;;
79790;SDS011;69278;52.220;5.172;2023-12-22T13:21:33;5.38;;;1.00;;
79790;SDS011;69278;52.220;5.172;2023-12-22T13:26:43;5.45;;;1.13;;
79790;SDS011;69278;52.220;5.172;2023-12-22T13:29:11;6.97;;;1.20;;
79790;SDS011;69278;52.220;5.172;2023-12-22T13:31:40;4.38;;;0.98;;
79790;SDS011;69278;52.220;5.172;2023-12-22T13:34:10;4.63;;;1.45;;
79790;SDS011;69278;52.220;5.172;2023-12-22T13:36:37;3.57;;;1.00;;
79790;SDS011;69278;52.220;5.172;2023-12-22T13:39:05;4.15;;;1.50;;
79790;SDS011;69278;52.220;5.172;2023-12-22T13:41:34;4.70;;;1.02;;
79790;SDS011;69278;52.220;5.172;2023-12-22T13:44:05;5.10;;;1.20;;
79790;SDS011;69278;52.220;5.172;2023-12-22T13:46:32;3.95;;;1.45;;
79790;SDS011;69278;52.220;5.172;2023-12-22T13:49:01;7.17;;;1.43;;
79790;SDS011;69278;52.220;5.172;2023-12-22T13:51:41;4.85;;;1.38;;
79790;SDS011;69278;52.220;5.172;2023-12-22T13:54:09;4.18;;;0.93;;
79790;SDS011;69278;52.220;5.172;2023-12-22T13:56:36;4.95;;;1.10;;
79790;SDS011;69278;52.220;5.172;2023-12-22T13:59:06;5.38;;;1.45;;
79790;SDS011;69278;52.220;5.172;2023-12-22T14:01:36;4.23;;;1.50;;
79790;SDS011;69278;52.220;5.172;2023-12-22T14:04:02;9.50;;;1.52;;
79790;SDS011;69278;52.220;5.172;2023-12-22T14:06:29;7.00;;;1.27;;
79790;SDS011;69278;52.220;5.172;2023-12-22T14:08:58;5.68;;;1.27;;
79790;SDS011;69278;52.220;5.172;2023-12-22T14:11:25;9.85;;;2.03;;
79790;SDS011;69278;52.220;5.172;2023-12-22T14:13:59;8.93;;;1.63;;
79790;SDS011;69278;52.220;5.172;2023-12-22T14:16:26;5.43;;;1.15;;
79790;SDS011;69278;52.220;5.172;2023-12-22T14:18:53;3.53;;;1.00;;
79790;SDS011;69278;52.220;5.172;2023-12-22T14:21:21;7.07;;;1.05;;
79790;SDS011;69278;52.220;5.172;2023-12-22T14:23:48;8.07;;;1.40;;
79790;SDS011;69278;52.220;5.172;2023-12-22T14:26:14;9.50;;;1.67;;
79790;SDS011;69278;52.220;5.172;2023-12-22T14:28:42;7.70;;;1.30;;
79790;SDS011;69278;52.220;5.172;2023-12-22T14:31:09;7.85;;;1.42;;
79790;SDS011;69278;52.220;5.172;2023-12-22T14:33:35;8.75;;;1.60;;
79790;SDS011;69278;52.220;5.172;2023-12-22T14:36:02;7.47;;;1.60;;
79790;SDS011;69278;52.220;5.172;2023-12-22T14:38:29;8.60;;;1.63;;
79790;SDS011;69278;52.220;5.172;2023-12-22T14:40:56;4.30;;;1.50;;
79790;SDS011;69278;52.220;5.172;2023-12-22T14:43:22;8.50;;;1.63;;
79790;SDS011;69278;52.220;5.172;2023-12-22T14:45:49;6.65;;;1.20;;
79790;SDS011;69278;52.220;5.172;2023-12-22T14:48:15;12.93;;;1.92;;
79790;SDS011;69278;52.220;5.172;2023-12-22T14:50:42;11.13;;;1.63;;
79790;SDS011;69278;52.220;5.172;2023-12-22T14:53:08;16.65;;;2.97;;
79790;SDS011;69278;52.220;5.172;2023-12-22T14:55:38;15.57;;;2.17;;
79790;SDS011;69278;52.220;5.172;2023-12-22T14:58:05;7.15;;;1.98;;
79790;SDS011;69278;52.220;5.172;2023-12-22T15:00:36;9.25;;;2.03;;
79790;SDS011;69278;52.220;5.172;2023-12-22T15:03:02;7.83;;;1.47;;
79790;SDS011;69278;52.220;5.172;2023-12-22T15:05:29;8.18;;;1.60;;